createdAt,value
2022-12-05T09:33:40.314Z,16.93
2022-12-05T09:35:11.779Z,17.24
2022-12-05T09:36:43.345Z,17.56
2022-12-05T09:38:14.739Z,17.84
2022-12-05T09:39:46.142Z,18.09
2022-12-05T09:41:36.091Z,18.32
2022-12-05T09:43:07.841Z,18.54
2022-12-05T09:44:58.175Z,18.71
2022-12-05T09:46:40.990Z,18.91
2022-12-05T09:48:13.724Z,19.06
2022-12-05T09:49:50.138Z,19.19
2022-12-05T09:51:21.537Z,19.31
2022-12-05T09:52:59.010Z,19.43
2022-12-05T09:54:30.413Z,19.53
2022-12-05T09:56:05.576Z,19.62
2022-12-05T09:57:38.293Z,19.73
2022-12-05T09:59:12.578Z,19.85
2022-12-05T10:00:43.995Z,19.96
2022-12-05T10:02:24.459Z,20.09
2022-12-05T10:04:02.105Z,20.25
2022-12-05T10:05:36.153Z,20.38
2022-12-05T10:07:27.828Z,20.49
2022-12-05T10:09:04.859Z,20.61
2022-12-05T10:10:40.342Z,20.71
2022-12-05T10:12:17.676Z,20.79
2022-12-05T10:14:04.531Z,20.82
2022-12-05T10:15:42.834Z,20.86
2022-12-05T10:17:21.129Z,20.85
2022-12-05T10:18:53.861Z,20.85
2022-12-05T10:20:26.416Z,20.85
2022-12-05T10:22:20.736Z,20.85
2022-12-05T10:23:59.704Z,20.86
2022-12-05T10:25:31.584Z,20.87
2022-12-05T10:27:04.482Z,20.87
2022-12-05T10:28:54.315Z,20.88
2022-12-05T10:30:27.267Z,20.90
2022-12-05T10:32:28.003Z,20.91
2022-12-05T10:34:22.782Z,20.91
2022-12-05T10:35:54.274Z,20.92
2022-12-05T10:37:25.751Z,20.90
2022-12-05T10:38:57.182Z,20.93
2022-12-05T10:40:35.949Z,20.92
2022-12-05T10:42:07.590Z,20.92
2022-12-05T10:43:40.256Z,20.93
2022-12-05T10:45:15.703Z,20.93
2022-12-05T10:46:47.197Z,20.93
2022-12-05T10:48:19.268Z,20.93
2022-12-05T10:49:50.672Z,20.93
2022-12-05T10:51:23.617Z,20.95
2022-12-05T10:52:55.659Z,20.97
2022-12-05T10:54:29.257Z,21.01
2022-12-05T10:56:29.343Z,21.03
2022-12-05T10:57:52.865Z,21.03
2022-12-05T10:59:25.294Z,21.04
2022-12-05T11:00:57.827Z,21.04
2022-12-05T11:02:30.324Z,21.03
2022-12-05T11:04:11.981Z,21.03
2022-12-05T11:05:45.066Z,21.08
2022-12-05T11:07:32.635Z,21.12
2022-12-05T11:09:33.178Z,21.12
2022-12-05T11:11:05.463Z,21.16
2022-12-05T11:12:37.344Z,21.19
2022-12-05T11:14:21.765Z,21.20
2022-12-05T11:15:55.687Z,21.23
2022-12-05T11:17:34.187Z,21.24
2022-12-05T11:19:18.336Z,21.28
2022-12-05T11:20:49.768Z,21.31
2022-12-05T11:22:21.179Z,21.33
2022-12-05T11:23:52.586Z,21.36
2022-12-05T11:25:26.758Z,21.37
2022-12-05T11:26:58.790Z,21.36
2022-12-05T11:28:31.300Z,21.36
2022-12-05T11:30:22.998Z,21.34
2022-12-05T11:31:54.415Z,21.33
2022-12-05T11:33:26.451Z,21.32
2022-12-05T11:34:58.066Z,21.30
2022-12-05T11:36:37.455Z,21.29
2022-12-05T11:38:09.692Z,21.31
2022-12-05T11:39:41.102Z,21.33
2022-12-05T11:41:15.659Z,21.36
2022-12-05T11:42:53.044Z,21.39
2022-12-05T11:44:50.722Z,21.39
2022-12-05T11:46:40.678Z,21.44
2022-12-05T11:48:30.217Z,21.48
2022-12-05T11:50:02.274Z,21.50
2022-12-05T11:51:38.988Z,21.52
2022-12-05T11:53:14.132Z,21.54
2022-12-05T11:56:37.992Z,21.59
2022-12-05T11:58:14.951Z,21.61
2022-12-05T11:59:46.324Z,21.61
2022-12-05T12:01:36.377Z,21.62
2022-12-05T12:03:10.875Z,21.64
2022-12-05T12:04:45.072Z,21.64
2022-12-05T12:06:45.614Z,21.64
2022-12-05T12:08:20.101Z,21.63
2022-12-05T12:10:10.157Z,21.62
2022-12-05T12:11:54.012Z,21.60
2022-12-05T12:13:31.395Z,21.60
2022-12-05T12:15:02.825Z,21.62
2022-12-05T12:16:40.485Z,21.69
2022-12-05T12:18:33.263Z,21.74
2022-12-05T12:20:04.672Z,21.80
2022-12-05T12:21:39.139Z,21.83
2022-12-05T12:23:25.633Z,21.87
2022-12-05T12:25:00.986Z,21.92
2022-12-05T12:26:44.254Z,21.94
2022-12-05T12:28:21.947Z,21.97
2022-12-05T12:29:53.342Z,21.99
2022-12-05T12:31:27.789Z,22.00
2022-12-05T12:33:05.948Z,22.01
2022-12-05T12:34:49.260Z,22.01
2022-12-05T12:36:43.370Z,22.01
2022-12-05T12:38:14.789Z,21.97
2022-12-05T12:39:50.493Z,21.94
2022-12-05T12:41:40.405Z,21.90
2022-12-05T12:43:44.867Z,21.87
2022-12-05T12:45:06.356Z,21.83
2022-12-05T12:46:46.310Z,21.79
2022-12-05T12:48:28.098Z,21.77
2022-12-05T12:50:19.463Z,21.74
2022-12-05T12:51:54.805Z,21.70
2022-12-05T12:53:30.328Z,21.68
2022-12-05T12:55:04.250Z,21.65
2022-12-05T12:56:51.225Z,21.62
2022-12-05T12:58:22.647Z,21.60
2022-12-05T13:00:09.341Z,21.57
2022-12-05T13:01:48.057Z,21.53
2022-12-05T13:03:23.662Z,21.51
2022-12-05T13:04:55.240Z,21.47
2022-12-05T13:06:32.602Z,21.45
2022-12-05T13:08:05.320Z,21.43
2022-12-05T13:09:51.840Z,21.41
2022-12-05T13:11:23.620Z,21.40
2022-12-05T13:12:55.184Z,21.39
2022-12-05T13:14:26.762Z,21.39
2022-12-05T13:15:58.469Z,21.38
2022-12-05T13:17:29.875Z,21.36
2022-12-05T13:19:01.345Z,21.35
2022-12-05T13:20:33.665Z,21.33
2022-12-05T13:22:05.663Z,21.31
2022-12-05T13:23:40.965Z,21.31
2022-12-05T13:25:15.377Z,21.29
2022-12-05T13:26:48.196Z,21.28
2022-12-05T13:28:26.646Z,21.28
2022-12-05T13:29:58.947Z,21.27
2022-12-05T13:31:40.669Z,21.26
2022-12-05T13:33:16.872Z,21.24
2022-12-05T13:34:48.275Z,21.24
2022-12-05T13:36:20.497Z,21.23
2022-12-05T13:37:51.889Z,21.23
2022-12-05T13:39:23.338Z,21.21
2022-12-05T13:40:54.748Z,21.20
2022-12-05T13:42:26.774Z,21.19
2022-12-05T13:44:06.356Z,21.19
2022-12-05T13:45:39.146Z,21.18
2022-12-05T13:47:29.362Z,21.16
2022-12-05T13:49:17.171Z,21.15
2022-12-05T13:50:53.000Z,21.13
2022-12-05T13:52:28.513Z,21.13
2022-12-05T13:54:01.302Z,21.13
2022-12-05T13:55:39.280Z,21.13
2022-12-05T13:57:30.639Z,21.13
2022-12-05T13:59:02.041Z,21.09
2022-12-05T14:00:34.731Z,21.12
2022-12-05T14:02:26.134Z,21.12
2022-12-05T14:03:58.248Z,21.12
2022-12-05T14:05:55.742Z,21.12
2022-12-05T14:07:37.151Z,21.11
2022-12-05T14:09:11.675Z,21.11
2022-12-05T14:10:43.082Z,21.11
2022-12-05T14:12:14.725Z,21.10
2022-12-05T14:13:46.601Z,21.09
2022-12-05T14:15:28.281Z,21.09
2022-12-05T14:16:59.727Z,21.08
2022-12-05T14:18:36.235Z,21.07
2022-12-05T14:20:07.654Z,21.06
2022-12-05T14:21:41.208Z,21.06
2022-12-05T14:23:21.476Z,21.06
2022-12-05T14:24:57.461Z,21.06
2022-12-05T14:26:47.749Z,21.04
2022-12-05T14:28:34.445Z,21.04
2022-12-05T14:30:08.730Z,21.03
2022-12-05T14:31:40.197Z,21.03
2022-12-05T14:33:13.672Z,21.03
2022-12-05T14:35:08.325Z,21.03
2022-12-05T14:36:39.735Z,21.03
2022-12-05T14:38:18.769Z,21.03
2022-12-05T14:39:50.840Z,21.01
2022-12-05T14:41:26.596Z,21.02
2022-12-05T14:42:59.494Z,21.02
2022-12-05T14:44:30.963Z,21.01
2022-12-05T14:46:06.411Z,21.01
2022-12-05T14:47:37.966Z,21.01
2022-12-05T14:49:28.344Z,21.01
2022-12-05T14:51:00.022Z,20.99
2022-12-05T14:52:31.464Z,21.00
2022-12-05T14:54:03.955Z,21.00
2022-12-05T14:55:35.767Z,21.01
2022-12-05T14:57:11.310Z,21.02
2022-12-05T14:58:45.711Z,21.01
2022-12-05T15:00:21.502Z,21.01
2022-12-05T15:01:56.658Z,21.01
2022-12-05T15:03:32.325Z,21.02
2022-12-05T15:05:05.429Z,21.01
2022-12-05T15:06:42.488Z,21.01
2022-12-05T15:08:14.241Z,21.01
2022-12-05T15:10:05.964Z,21.01
2022-12-05T15:11:37.370Z,21.00
2022-12-05T15:13:11.881Z,21.00
2022-12-05T15:14:44.449Z,21.01
2022-12-05T15:16:17.317Z,21.00
2022-12-05T15:17:57.741Z,20.99
2022-12-05T15:19:30.011Z,21.00
2022-12-05T15:21:07.366Z,20.99
2022-12-05T15:22:38.786Z,20.99
2022-12-05T15:24:13.538Z,20.98
2022-12-05T15:25:44.967Z,20.99
2022-12-05T15:27:17.782Z,20.98
2022-12-05T15:29:07.623Z,20.98
2022-12-05T15:30:39.126Z,20.97
2022-12-05T15:32:10.557Z,20.97
2022-12-05T15:33:49.792Z,20.97
2022-12-05T15:35:22.207Z,20.97
2022-12-05T15:37:12.334Z,20.96
2022-12-05T15:38:43.726Z,20.97
2022-12-05T15:40:15.575Z,20.95
2022-12-05T15:41:46.990Z,20.96
2022-12-05T15:43:36.705Z,20.96
2022-12-05T15:45:14.267Z,20.96
2022-12-05T15:46:45.889Z,20.98
2022-12-05T15:48:22.964Z,20.97
2022-12-05T15:49:54.735Z,20.96
2022-12-05T15:51:31.786Z,20.97
2022-12-05T15:53:12.300Z,20.96
2022-12-05T15:54:45.016Z,20.97
2022-12-05T15:56:35.318Z,20.96
2022-12-05T15:58:12.592Z,20.97
2022-12-05T15:59:53.020Z,20.97
2022-12-05T16:01:25.015Z,20.98
2022-12-05T16:02:56.557Z,20.98
2022-12-05T16:04:32.717Z,20.98
2022-12-05T16:06:10.955Z,20.97
2022-12-05T16:07:42.426Z,20.98
2022-12-05T16:09:23.399Z,20.98
2022-12-05T16:10:54.842Z,20.98
2022-12-05T16:12:33.948Z,20.97
2022-12-05T16:14:05.615Z,20.97
2022-12-05T16:15:37.037Z,20.97
2022-12-05T16:17:09.058Z,20.98
2022-12-05T16:18:40.481Z,20.96
2022-12-05T16:20:23.034Z,20.98
2022-12-05T16:22:07.398Z,20.98
2022-12-05T16:23:41.467Z,20.98
2022-12-05T16:25:14.188Z,20.97
2022-12-05T16:27:06.152Z,20.97
2022-12-05T16:28:37.736Z,20.97
2022-12-05T16:30:16.537Z,20.97
2022-12-05T16:31:53.075Z,20.98
2022-12-05T16:33:24.651Z,20.98
2022-12-05T16:34:56.312Z,20.98
2022-12-05T16:36:27.876Z,20.98
2022-12-05T16:38:22.641Z,20.98
2022-12-05T16:39:54.082Z,20.98
2022-12-05T16:41:33.814Z,20.98
2022-12-05T16:43:06.651Z,20.98
2022-12-05T16:44:47.307Z,20.98
2022-12-05T16:46:20.505Z,20.98
2022-12-05T16:47:58.720Z,20.99
2022-12-05T16:49:30.633Z,21.00
2022-12-05T16:51:11.607Z,20.99
2022-12-05T16:52:43.215Z,20.99
2022-12-05T16:54:14.840Z,20.99
2022-12-05T16:55:46.282Z,20.98
2022-12-05T16:57:17.764Z,20.99
2022-12-05T16:58:50.943Z,20.99
2022-12-05T17:00:22.466Z,21.00
2022-12-05T17:01:57.396Z,20.99
2022-12-05T17:03:36.646Z,21.00
2022-12-05T17:05:14.713Z,21.00
2022-12-05T17:06:46.637Z,21.00
2022-12-05T17:08:26.320Z,21.00
2022-12-05T17:09:58.274Z,21.00
2022-12-05T17:11:30.466Z,21.01
2022-12-05T17:13:01.903Z,21.03
2022-12-05T17:14:33.464Z,21.01
2022-12-05T17:16:05.199Z,21.01
2022-12-05T17:17:40.086Z,21.02
2022-12-05T17:19:11.957Z,21.03
2022-12-05T17:20:45.100Z,21.03
2022-12-05T17:22:16.561Z,21.03
2022-12-05T17:23:48.664Z,21.03
2022-12-05T17:25:30.675Z,21.03
2022-12-05T17:27:02.672Z,21.03
2022-12-05T17:28:34.639Z,21.04
2022-12-05T17:30:07.077Z,21.03
2022-12-05T17:31:38.845Z,21.04
2022-12-05T17:33:11.158Z,21.04
2022-12-05T17:34:42.770Z,21.05
2022-12-05T17:36:15.095Z,21.04
2022-12-05T17:37:47.075Z,21.05
2022-12-05T17:39:22.372Z,21.05
2022-12-05T17:40:56.466Z,21.03
2022-12-05T17:42:28.417Z,21.04
2022-12-05T17:44:00.113Z,21.05
2022-12-05T17:45:34.617Z,21.03
2022-12-05T17:47:08.313Z,21.03
2022-12-05T17:48:40.227Z,21.04
2022-12-05T17:50:15.543Z,21.03
2022-12-05T17:52:19.916Z,21.02
2022-12-05T17:53:39.532Z,21.03
2022-12-05T17:55:18.181Z,21.04
2022-12-05T17:56:52.506Z,21.05
2022-12-05T17:58:26.629Z,21.04
2022-12-05T17:59:58.205Z,21.04
2022-12-05T18:01:29.675Z,21.04
2022-12-05T18:03:01.325Z,21.03
2022-12-05T18:04:32.942Z,21.03
2022-12-05T18:06:04.458Z,21.04
2022-12-05T18:07:36.798Z,21.04
2022-12-05T18:09:08.881Z,21.04
2022-12-05T18:10:41.157Z,21.01
2022-12-05T18:12:12.560Z,21.02
2022-12-05T18:13:46.694Z,20.99
2022-12-05T18:15:18.215Z,21.00
2022-12-05T18:16:49.970Z,20.99
2022-12-05T18:18:22.310Z,21.00
2022-12-05T18:19:54.515Z,21.00
2022-12-05T18:21:26.588Z,21.00
2022-12-05T18:22:58.146Z,21.00
2022-12-05T18:24:29.817Z,21.00
2022-12-05T18:26:01.748Z,21.00
2022-12-05T18:27:33.849Z,21.01
2022-12-05T18:29:05.542Z,21.00
2022-12-05T18:30:38.904Z,21.00
2022-12-05T18:32:10.781Z,21.00
2022-12-05T18:33:43.380Z,20.99
2022-12-05T18:35:15.524Z,20.97
2022-12-05T18:36:47.704Z,20.97
2022-12-05T18:38:19.584Z,20.95
2022-12-05T18:39:52.942Z,20.89
2022-12-05T18:41:26.669Z,20.91
2022-12-05T18:42:58.520Z,20.88
2022-12-05T18:44:31.414Z,20.88
2022-12-05T18:46:04.944Z,20.87
2022-12-05T18:47:37.083Z,20.86
2022-12-05T18:49:08.866Z,20.84
2022-12-05T18:50:41.637Z,20.84
2022-12-05T18:52:13.776Z,20.81
2022-12-05T18:53:45.900Z,20.81
2022-12-05T18:55:20.815Z,20.78
2022-12-05T18:56:55.322Z,20.76
2022-12-05T18:58:28.325Z,20.75
2022-12-05T19:00:00.386Z,20.72
2022-12-05T19:01:36.148Z,20.70
2022-12-05T19:03:09.529Z,20.70
2022-12-05T19:04:41.863Z,20.67
2022-12-05T19:06:14.421Z,20.67
2022-12-05T19:07:47.474Z,20.67
2022-12-05T19:09:20.453Z,20.69
2022-12-05T19:10:54.841Z,20.67
2022-12-05T19:12:26.995Z,20.67
2022-12-05T19:15:35.639Z,20.69
2022-12-05T19:17:07.886Z,20.69
2022-12-05T19:18:40.506Z,20.69
2022-12-05T19:20:12.884Z,20.70
2022-12-05T19:21:47.482Z,20.70
2022-12-05T19:23:26.566Z,20.71
2022-12-05T19:25:00.598Z,20.70
2022-12-05T19:26:32.943Z,20.70
2022-12-05T19:28:05.194Z,20.70
2022-12-05T19:29:37.492Z,20.69
2022-12-05T19:31:09.904Z,20.70
2022-12-05T19:43:44.432Z,20.65
2022-12-05T19:45:18.155Z,20.65
2022-12-05T19:46:50.567Z,20.62
2022-12-05T19:48:22.470Z,20.60
2022-12-05T19:49:55.155Z,20.59
2022-12-05T19:51:28.323Z,20.59
2022-12-05T19:53:00.233Z,20.59
2022-12-05T19:54:32.326Z,20.58
2022-12-05T19:56:07.677Z,20.59
2022-12-05T19:57:39.886Z,20.53
2022-12-05T19:59:15.861Z,20.57
2022-12-05T20:00:48.121Z,20.58
2022-12-05T20:02:29.802Z,20.59
2022-12-05T20:04:04.173Z,20.59
2022-12-05T20:05:36.232Z,20.60
2022-12-05T20:07:08.587Z,20.60
2022-12-05T20:08:40.262Z,20.60
2022-12-05T20:10:12.829Z,20.60
